sensor_id;sensor_type;location;lat;lon;timestamp;temperature;humidity
14101;DHT22;7127;49.372;8.166;2023-11-19T00:02:25;13.20;63.00
14101;DHT22;7127;49.372;8.166;2023-11-19T00:04:52;13.20;63.00
14101;DHT22;7127;49.372;8.166;2023-11-19T00:07:19;13.30;63.30
14101;DHT22;7127;49.372;8.166;2023-11-19T00:09:46;13.20;63.40
14101;DHT22;7127;49.372;8.166;2023-11-19T00:12:14;13.20;63.50
14101;DHT22;7127;49.372;8.166;2023-11-19T00:14:41;13.20;63.50
14101;DHT22;7127;49.372;8.166;2023-11-19T00:17:08;13.20;63.60
14101;DHT22;7127;49.372;8.166;2023-11-19T00:19:35;13.20;63.70
14101;DHT22;7127;49.372;8.166;2023-11-19T00:22:02;13.20;64.00
14101;DHT22;7127;49.372;8.166;2023-11-19T00:24:29;13.20;63.80
14101;DHT22;7127;49.372;8.166;2023-11-19T00:26:56;13.20;63.80
14101;DHT22;7127;49.372;8.166;2023-11-19T00:29:24;13.30;64.00
14101;DHT22;7127;49.372;8.166;2023-11-19T00:31:51;13.20;64.00
14101;DHT22;7127;49.372;8.166;2023-11-19T00:34:18;13.30;64.10
14101;DHT22;7127;49.372;8.166;2023-11-19T00:36:48;13.30;64.10
14101;DHT22;7127;49.372;8.166;2023-11-19T00:39:15;13.30;64.40
14101;DHT22;7127;49.372;8.166;2023-11-19T00:41:43;13.40;64.80
14101;DHT22;7127;49.372;8.166;2023-11-19T00:44:11;13.30;64.60
14101;DHT22;7127;49.372;8.166;2023-11-19T00:46:39;13.30;64.50
14101;DHT22;7127;49.372;8.166;2023-11-19T00:49:06;13.30;64.60
14101;DHT22;7127;49.372;8.166;2023-11-19T00:51:33;13.30;64.70
14101;DHT22;7127;49.372;8.166;2023-11-19T00:54:00;13.40;65.00
14101;DHT22;7127;49.372;8.166;2023-11-19T00:56:27;13.40;65.20
14101;DHT22;7127;49.372;8.166;2023-11-19T00:58:54;13.40;65.20
14101;DHT22;7127;49.372;8.166;2023-11-19T01:01:21;13.40;65.20
14101;DHT22;7127;49.372;8.166;2023-11-19T01:03:49;13.50;65.60
14101;DHT22;7127;49.372;8.166;2023-11-19T01:06:27;13.60;65.50
14101;DHT22;7127;49.372;8.166;2023-11-19T01:08:54;13.70;65.70
14101;DHT22;7127;49.372;8.166;2023-11-19T01:11:22;13.70;65.40
14101;DHT22;7127;49.372;8.166;2023-11-19T01:13:49;13.80;65.40
14101;DHT22;7127;49.372;8.166;2023-11-19T01:16:16;13.80;65.40
14101;DHT22;7127;49.372;8.166;2023-11-19T01:18:44;13.80;65.20
14101;DHT22;7127;49.372;8.166;2023-11-19T01:21:12;13.90;65.30
14101;DHT22;7127;49.372;8.166;2023-11-19T01:23:40;13.90;65.30
14101;DHT22;7127;49.372;8.166;2023-11-19T01:26:08;14.00;65.30
14101;DHT22;7127;49.372;8.166;2023-11-19T01:28:35;13.90;65.20
14101;DHT22;7127;49.372;8.166;2023-11-19T01:31:02;14.00;65.20
14101;DHT22;7127;49.372;8.166;2023-11-19T01:33:29;14.00;65.30
14101;DHT22;7127;49.372;8.166;2023-11-19T01:35:56;14.10;65.30
14101;DHT22;7127;49.372;8.166;2023-11-19T01:38:25;14.10;65.50
14101;DHT22;7127;49.372;8.166;2023-11-19T01:40:56;14.10;65.30
14101;DHT22;7127;49.372;8.166;2023-11-19T01:43:33;14.10;65.20
14101;DHT22;7127;49.372;8.166;2023-11-19T01:46:00;14.10;65.30
14101;DHT22;7127;49.372;8.166;2023-11-19T01:48:27;14.20;65.20
14101;DHT22;7127;49.372;8.166;2023-11-19T01:50:54;14.20;65.10
14101;DHT22;7127;49.372;8.166;2023-11-19T01:53:21;14.20;65.00
14101;DHT22;7127;49.372;8.166;2023-11-19T01:55:50;14.20;65.00
14101;DHT22;7127;49.372;8.166;2023-11-19T01:58:18;14.30;65.00
14101;DHT22;7127;49.372;8.166;2023-11-19T02:00:45;14.30;64.80
14101;DHT22;7127;49.372;8.166;2023-11-19T02:03:12;14.30;64.90
14101;DHT22;7127;49.372;8.166;2023-11-19T02:05:39;14.30;64.80
14101;DHT22;7127;49.372;8.166;2023-11-19T02:08:06;14.30;64.60
14101;DHT22;7127;49.372;8.166;2023-11-19T02:10:33;14.40;64.60
14101;DHT22;7127;49.372;8.166;2023-11-19T02:13:02;14.40;64.50
14101;DHT22;7127;49.372;8.166;2023-11-19T02:15:30;14.30;64.30
14101;DHT22;7127;49.372;8.166;2023-11-19T02:17:58;14.30;64.20
14101;DHT22;7127;49.372;8.166;2023-11-19T02:20:43;14.30;64.20
14101;DHT22;7127;49.372;8.166;2023-11-19T02:23:12;14.30;64.20
14101;DHT22;7127;49.372;8.166;2023-11-19T02:25:40;14.30;64.00
14101;DHT22;7127;49.372;8.166;2023-11-19T02:28:08;14.30;64.00
14101;DHT22;7127;49.372;8.166;2023-11-19T02:30:37;14.30;64.00
14101;DHT22;7127;49.372;8.166;2023-11-19T02:33:04;14.20;63.90
14101;DHT22;7127;49.372;8.166;2023-11-19T02:35:32;14.20;63.90
14101;DHT22;7127;49.372;8.166;2023-11-19T02:37:59;14.20;63.90
14101;DHT22;7127;49.372;8.166;2023-11-19T02:40:26;14.20;64.00
14101;DHT22;7127;49.372;8.166;2023-11-19T02:42:53;14.10;64.10
14101;DHT22;7127;49.372;8.166;2023-11-19T02:45:22;14.10;65.10
14101;DHT22;7127;49.372;8.166;2023-11-19T02:47:49;14.10;64.40
14101;DHT22;7127;49.372;8.166;2023-11-19T02:50:17;14.10;64.40
14101;DHT22;7127;49.372;8.166;2023-11-19T02:52:51;14.10;64.50
14101;DHT22;7127;49.372;8.166;2023-11-19T02:55:18;14.10;64.40
14101;DHT22;7127;49.372;8.166;2023-11-19T02:57:46;14.10;64.40
14101;DHT22;7127;49.372;8.166;2023-11-19T03:00:15;14.10;64.40
14101;DHT22;7127;49.372;8.166;2023-11-19T03:02:44;14.10;64.40
14101;DHT22;7127;49.372;8.166;2023-11-19T03:05:12;14.10;64.50
14101;DHT22;7127;49.372;8.166;2023-11-19T03:07:40;14.20;64.50
14101;DHT22;7127;49.372;8.166;2023-11-19T03:10:09;14.10;64.40
14101;DHT22;7127;49.372;8.166;2023-11-19T03:12:39;14.20;64.50
14101;DHT22;7127;49.372;8.166;2023-11-19T03:15:06;14.20;64.50
14101;DHT22;7127;49.372;8.166;2023-11-19T03:17:35;14.20;64.40
14101;DHT22;7127;49.372;8.166;2023-11-19T03:20:05;14.20;64.30
14101;DHT22;7127;49.372;8.166;2023-11-19T03:22:35;14.20;64.30
14101;DHT22;7127;49.372;8.166;2023-11-19T03:25:04;14.20;64.20
14101;DHT22;7127;49.372;8.166;2023-11-19T03:27:34;14.20;64.20
14101;DHT22;7127;49.372;8.166;2023-11-19T03:30:01;14.20;64.10
14101;DHT22;7127;49.372;8.166;2023-11-19T03:32:28;14.20;64.30
14101;DHT22;7127;49.372;8.166;2023-11-19T03:34:55;14.20;64.30
14101;DHT22;7127;49.372;8.166;2023-11-19T03:37:23;14.10;64.30
14101;DHT22;7127;49.372;8.166;2023-11-19T03:39:50;14.20;64.50
14101;DHT22;7127;49.372;8.166;2023-11-19T03:42:19;14.10;64.40
14101;DHT22;7127;49.372;8.166;2023-11-19T03:44:46;14.20;64.50
14101;DHT22;7127;49.372;8.166;2023-11-19T03:47:12;14.20;64.50
14101;DHT22;7127;49.372;8.166;2023-11-19T03:49:39;14.10;64.40
14101;DHT22;7127;49.372;8.166;2023-11-19T03:52:06;14.10;64.40
14101;DHT22;7127;49.372;8.166;2023-11-19T03:54:36;14.10;64.50
14101;DHT22;7127;49.372;8.166;2023-11-19T03:57:03;14.10;64.60
14101;DHT22;7127;49.372;8.166;2023-11-19T03:59:30;14.20;64.70
14101;DHT22;7127;49.372;8.166;2023-11-19T04:01:58;14.10;64.60
14101;DHT22;7127;49.372;8.166;2023-11-19T04:04:26;14.10;64.70
14101;DHT22;7127;49.372;8.166;2023-11-19T04:06:53;14.20;64.80
14101;DHT22;7127;49.372;8.166;2023-11-19T04:09:20;14.20;64.70
14101;DHT22;7127;49.372;8.166;2023-11-19T04:11:48;14.20;64.90
14101;DHT22;7127;49.372;8.166;2023-11-19T04:14:15;14.20;64.90
14101;DHT22;7127;49.372;8.166;2023-11-19T04:16:43;14.20;64.90
14101;DHT22;7127;49.372;8.166;2023-11-19T04:19:10;14.20;65.00
14101;DHT22;7127;49.372;8.166;2023-11-19T04:21:39;14.20;65.00
14101;DHT22;7127;49.372;8.166;2023-11-19T04:24:08;14.20;65.10
14101;DHT22;7127;49.372;8.166;2023-11-19T04:26:40;14.20;65.30
14101;DHT22;7127;49.372;8.166;2023-11-19T04:29:09;14.20;65.40
14101;DHT22;7127;49.372;8.166;2023-11-19T04:31:36;14.20;65.70
14101;DHT22;7127;49.372;8.166;2023-11-19T04:34:03;14.30;65.90
14101;DHT22;7127;49.372;8.166;2023-11-19T04:36:30;14.30;65.90
14101;DHT22;7127;49.372;8.166;2023-11-19T04:38:57;14.30;65.90
14101;DHT22;7127;49.372;8.166;2023-11-19T04:41:25;14.30;65.90
14101;DHT22;7127;49.372;8.166;2023-11-19T04:43:53;14.40;66.30
14101;DHT22;7127;49.372;8.166;2023-11-19T04:46:21;14.40;66.40
14101;DHT22;7127;49.372;8.166;2023-11-19T04:48:49;14.50;66.60
14101;DHT22;7127;49.372;8.166;2023-11-19T04:51:16;14.50;66.70
14101;DHT22;7127;49.372;8.166;2023-11-19T04:53:43;14.50;66.70
14101;DHT22;7127;49.372;8.166;2023-11-19T04:56:11;14.60;66.90
14101;DHT22;7127;49.372;8.166;2023-11-19T04:58:38;14.60;66.90
14101;DHT22;7127;49.372;8.166;2023-11-19T05:01:06;14.60;66.90
14101;DHT22;7127;49.372;8.166;2023-11-19T05:03:34;14.70;67.00
14101;DHT22;7127;49.372;8.166;2023-11-19T05:06:01;14.70;67.20
14101;DHT22;7127;49.372;8.166;2023-11-19T05:08:28;14.80;67.10
14101;DHT22;7127;49.372;8.166;2023-11-19T05:10:55;14.90;67.40
14101;DHT22;7127;49.372;8.166;2023-11-19T05:13:23;14.90;67.60
14101;DHT22;7127;49.372;8.166;2023-11-19T05:15:50;14.90;67.70
14101;DHT22;7127;49.372;8.166;2023-11-19T05:18:17;15.00;67.60
14101;DHT22;7127;49.372;8.166;2023-11-19T05:20:45;15.00;67.50
14101;DHT22;7127;49.372;8.166;2023-11-19T05:23:12;15.20;67.60
14101;DHT22;7127;49.372;8.166;2023-11-19T05:25:39;15.10;67.50
14101;DHT22;7127;49.372;8.166;2023-11-19T05:28:06;15.20;67.50
14101;DHT22;7127;49.372;8.166;2023-11-19T05:30:33;15.20;67.50
14101;DHT22;7127;49.372;8.166;2023-11-19T05:33:00;15.30;67.60
14101;DHT22;7127;49.372;8.166;2023-11-19T05:35:27;15.30;67.60
14101;DHT22;7127;49.372;8.166;2023-11-19T05:37:55;15.30;67.40
14101;DHT22;7127;49.372;8.166;2023-11-19T05:40:22;15.30;67.50
14101;DHT22;7127;49.372;8.166;2023-11-19T05:42:49;15.40;67.60
14101;DHT22;7127;49.372;8.166;2023-11-19T05:45:16;15.40;67.40
14101;DHT22;7127;49.372;8.166;2023-11-19T05:47:42;15.50;67.60
14101;DHT22;7127;49.372;8.166;2023-11-19T05:50:10;15.50;67.50
14101;DHT22;7127;49.372;8.166;2023-11-19T05:52:37;15.50;67.40
14101;DHT22;7127;49.372;8.166;2023-11-19T05:55:06;15.60;67.40
14101;DHT22;7127;49.372;8.166;2023-11-19T05:57:35;15.60;67.40
14101;DHT22;7127;49.372;8.166;2023-11-19T06:00:02;15.60;67.30
14101;DHT22;7127;49.372;8.166;2023-11-19T06:02:32;15.70;67.40
14101;DHT22;7127;49.372;8.166;2023-11-19T06:04:59;15.70;67.30
14101;DHT22;7127;49.372;8.166;2023-11-19T06:07:26;15.70;67.30
14101;DHT22;7127;49.372;8.166;2023-11-19T06:09:53;15.80;67.40
14101;DHT22;7127;49.372;8.166;2023-11-19T06:12:21;15.80;67.40
14101;DHT22;7127;49.372;8.166;2023-11-19T06:14:48;15.80;67.40
14101;DHT22;7127;49.372;8.166;2023-11-19T06:17:15;15.80;67.30
14101;DHT22;7127;49.372;8.166;2023-11-19T06:19:41;15.90;67.30
14101;DHT22;7127;49.372;8.166;2023-11-19T06:22:08;15.90;67.30
14101;DHT22;7127;49.372;8.166;2023-11-19T06:24:35;15.90;67.50
14101;DHT22;7127;49.372;8.166;2023-11-19T06:27:03;15.90;67.20
14101;DHT22;7127;49.372;8.166;2023-11-19T06:29:32;16.00;67.50
14101;DHT22;7127;49.372;8.166;2023-11-19T06:31:58;16.00;67.30
14101;DHT22;7127;49.372;8.166;2023-11-19T06:34:25;16.00;67.20
14101;DHT22;7127;49.372;8.166;2023-11-19T06:36:52;16.00;67.00
14101;DHT22;7127;49.372;8.166;2023-11-19T06:39:19;16.00;67.00
14101;DHT22;7127;49.372;8.166;2023-11-19T06:41:47;16.00;66.90
14101;DHT22;7127;49.372;8.166;2023-11-19T06:44:14;16.00;66.90
14101;DHT22;7127;49.372;8.166;2023-11-19T06:46:42;16.00;66.90
14101;DHT22;7127;49.372;8.166;2023-11-19T06:49:09;16.10;67.00
14101;DHT22;7127;49.372;8.166;2023-11-19T06:51:36;16.10;66.90
14101;DHT22;7127;49.372;8.166;2023-11-19T06:54:07;16.10;66.80
14101;DHT22;7127;49.372;8.166;2023-11-19T06:56:33;16.10;66.80
14101;DHT22;7127;49.372;8.166;2023-11-19T06:59:00;16.10;66.70
14101;DHT22;7127;49.372;8.166;2023-11-19T07:01:27;16.10;66.80
14101;DHT22;7127;49.372;8.166;2023-11-19T07:03:55;16.10;66.80
14101;DHT22;7127;49.372;8.166;2023-11-19T07:06:23;16.10;66.70
14101;DHT22;7127;49.372;8.166;2023-11-19T07:08:50;16.10;66.80
14101;DHT22;7127;49.372;8.166;2023-11-19T07:11:16;16.10;66.90
14101;DHT22;7127;49.372;8.166;2023-11-19T07:13:43;16.10;66.80
14101;DHT22;7127;49.372;8.166;2023-11-19T07:16:11;16.20;66.90
14101;DHT22;7127;49.372;8.166;2023-11-19T07:18:40;16.20;66.90
14101;DHT22;7127;49.372;8.166;2023-11-19T07:21:08;16.20;66.90
14101;DHT22;7127;49.372;8.166;2023-11-19T07:23:35;16.20;66.90
14101;DHT22;7127;49.372;8.166;2023-11-19T07:26:05;16.20;66.90
14101;DHT22;7127;49.372;8.166;2023-11-19T07:28:33;16.30;67.20
14101;DHT22;7127;49.372;8.166;2023-11-19T07:31:00;16.30;67.20
14101;DHT22;7127;49.372;8.166;2023-11-19T07:33:27;16.30;67.20
14101;DHT22;7127;49.372;8.166;2023-11-19T07:35:55;16.40;67.30
14101;DHT22;7127;49.372;8.166;2023-11-19T07:38:23;16.30;67.20
14101;DHT22;7127;49.372;8.166;2023-11-19T07:40:50;16.40;67.30
14101;DHT22;7127;49.372;8.166;2023-11-19T07:43:16;16.40;67.40
14101;DHT22;7127;49.372;8.166;2023-11-19T07:45:43;16.40;67.30
14101;DHT22;7127;49.372;8.166;2023-11-19T07:48:11;16.40;67.30
14101;DHT22;7127;49.372;8.166;2023-11-19T07:50:38;16.40;67.30
14101;DHT22;7127;49.372;8.166;2023-11-19T07:53:06;16.40;67.20
14101;DHT22;7127;49.372;8.166;2023-11-19T07:55:34;16.40;67.20
14101;DHT22;7127;49.372;8.166;2023-11-19T07:58:01;16.50;67.20
14101;DHT22;7127;49.372;8.166;2023-11-19T08:00:42;16.50;67.00
14101;DHT22;7127;49.372;8.166;2023-11-19T08:03:09;16.50;66.90
14101;DHT22;7127;49.372;8.166;2023-11-19T08:05:35;16.50;66.70
14101;DHT22;7127;49.372;8.166;2023-11-19T08:08:03;16.50;66.50
14101;DHT22;7127;49.372;8.166;2023-11-19T08:10:30;16.50;66.30
14101;DHT22;7127;49.372;8.166;2023-11-19T08:13:00;16.40;66.20
14101;DHT22;7127;49.372;8.166;2023-11-19T08:15:26;16.50;66.30
14101;DHT22;7127;49.372;8.166;2023-11-19T08:17:53;16.40;66.10
14101;DHT22;7127;49.372;8.166;2023-11-19T08:20:20;16.50;66.10
14101;DHT22;7127;49.372;8.166;2023-11-19T08:22:47;16.50;66.20
14101;DHT22;7127;49.372;8.166;2023-11-19T08:25:14;16.50;66.20
14101;DHT22;7127;49.372;8.166;2023-11-19T08:27:40;16.50;66.20
14101;DHT22;7127;49.372;8.166;2023-11-19T08:30:10;16.50;66.20
14101;DHT22;7127;49.372;8.166;2023-11-19T08:32:37;16.40;66.10
14101;DHT22;7127;49.372;8.166;2023-11-19T08:35:04;16.50;66.20
14101;DHT22;7127;49.372;8.166;2023-11-19T08:37:31;16.50;66.10
14101;DHT22;7127;49.372;8.166;2023-11-19T08:39:58;16.50;66.10
14101;DHT22;7127;49.372;8.166;2023-11-19T08:42:25;16.50;66.10
14101;DHT22;7127;49.372;8.166;2023-11-19T08:44:51;16.50;66.00
14101;DHT22;7127;49.372;8.166;2023-11-19T08:47:21;16.50;66.00
14101;DHT22;7127;49.372;8.166;2023-11-19T08:49:51;16.60;66.10
14101;DHT22;7127;49.372;8.166;2023-11-19T08:52:19;16.50;66.00
14101;DHT22;7127;49.372;8.166;2023-11-19T08:54:54;16.60;66.10
14101;DHT22;7127;49.372;8.166;2023-11-19T08:57:49;16.60;66.10
14101;DHT22;7127;49.372;8.166;2023-11-19T09:03:42;16.60;66.00
14101;DHT22;7127;49.372;8.166;2023-11-19T09:06:09;16.70;66.80
14101;DHT22;7127;49.372;8.166;2023-11-19T09:08:46;16.70;66.00
14101;DHT22;7127;49.372;8.166;2023-11-19T09:11:13;16.70;65.80
14101;DHT22;7127;49.372;8.166;2023-11-19T09:13:40;16.70;65.60
14101;DHT22;7127;49.372;8.166;2023-11-19T09:16:07;16.70;65.60
14101;DHT22;7127;49.372;8.166;2023-11-19T09:18:34;16.80;65.50
14101;DHT22;7127;49.372;8.166;2023-11-19T09:21:03;16.80;65.60
14101;DHT22;7127;49.372;8.166;2023-11-19T09:23:29;16.80;65.60
14101;DHT22;7127;49.372;8.166;2023-11-19T09:26:01;16.90;65.70
14101;DHT22;7127;49.372;8.166;2023-11-19T09:28:28;16.90;65.60
14101;DHT22;7127;49.372;8.166;2023-11-19T09:30:54;16.90;65.70
14101;DHT22;7127;49.372;8.166;2023-11-19T09:33:21;17.00;65.60
14101;DHT22;7127;49.372;8.166;2023-11-19T09:35:48;17.10;65.30
14101;DHT22;7127;49.372;8.166;2023-11-19T09:38:17;17.00;65.20
14101;DHT22;7127;49.372;8.166;2023-11-19T09:40:44;17.10;65.20
14101;DHT22;7127;49.372;8.166;2023-11-19T09:43:10;17.20;65.00
14101;DHT22;7127;49.372;8.166;2023-11-19T09:45:49;17.30;65.00
14101;DHT22;7127;49.372;8.166;2023-11-19T09:48:17;17.40;64.70
14101;DHT22;7127;49.372;8.166;2023-11-19T09:50:45;17.30;64.40
14101;DHT22;7127;49.372;8.166;2023-11-19T09:53:13;17.30;63.70
14101;DHT22;7127;49.372;8.166;2023-11-19T09:55:43;17.40;63.80
14101;DHT22;7127;49.372;8.166;2023-11-19T09:58:11;17.40;63.20
14101;DHT22;7127;49.372;8.166;2023-11-19T10:00:38;17.40;63.10
14101;DHT22;7127;49.372;8.166;2023-11-19T10:03:07;17.30;63.20
14101;DHT22;7127;49.372;8.166;2023-11-19T10:05:35;17.40;63.20
14101;DHT22;7127;49.372;8.166;2023-11-19T10:08:04;17.40;63.20
14101;DHT22;7127;49.372;8.166;2023-11-19T10:10:31;17.40;63.20
14101;DHT22;7127;49.372;8.166;2023-11-19T10:12:59;17.50;63.00
14101;DHT22;7127;49.372;8.166;2023-11-19T10:15:26;17.50;62.80
14101;DHT22;7127;49.372;8.166;2023-11-19T10:17:55;17.50;62.70
14101;DHT22;7127;49.372;8.166;2023-11-19T10:20:22;17.50;62.70
14101;DHT22;7127;49.372;8.166;2023-11-19T10:22:52;17.60;62.80
14101;DHT22;7127;49.372;8.166;2023-11-19T10:25:24;17.60;62.30
14101;DHT22;7127;49.372;8.166;2023-11-19T10:27:51;17.50;61.80
14101;DHT22;7127;49.372;8.166;2023-11-19T10:30:20;17.50;61.60
14101;DHT22;7127;49.372;8.166;2023-11-19T10:33:03;17.60;62.40
14101;DHT22;7127;49.372;8.166;2023-11-19T10:35:32;17.60;62.00
14101;DHT22;7127;49.372;8.166;2023-11-19T10:38:00;17.60;62.30
14101;DHT22;7127;49.372;8.166;2023-11-19T10:40:39;17.60;62.30
14101;DHT22;7127;49.372;8.166;2023-11-19T10:43:07;17.60;62.10
14101;DHT22;7127;49.372;8.166;2023-11-19T10:45:36;17.60;62.40
14101;DHT22;7127;49.372;8.166;2023-11-19T10:48:04;17.70;62.70
14101;DHT22;7127;49.372;8.166;2023-11-19T10:50:33;17.80;63.20
14101;DHT22;7127;49.372;8.166;2023-11-19T10:53:00;17.90;63.40
14101;DHT22;7127;49.372;8.166;2023-11-19T10:55:28;18.00;63.10
14101;DHT22;7127;49.372;8.166;2023-11-19T10:57:59;18.10;62.90
14101;DHT22;7127;49.372;8.166;2023-11-19T11:00:28;18.20;62.70
14101;DHT22;7127;49.372;8.166;2023-11-19T11:06:03;18.20;62.70
14101;DHT22;7127;49.372;8.166;2023-11-19T11:08:31;18.40;63.20
14101;DHT22;7127;49.372;8.166;2023-11-19T11:10:58;18.40;62.30
14101;DHT22;7127;49.372;8.166;2023-11-19T11:13:26;18.50;62.20
14101;DHT22;7127;49.372;8.166;2023-11-19T11:15:56;18.60;62.30
14101;DHT22;7127;49.372;8.166;2023-11-19T11:18:42;18.60;62.60
14101;DHT22;7127;49.372;8.166;2023-11-19T11:21:11;18.70;61.30
14101;DHT22;7127;49.372;8.166;2023-11-19T11:24:03;18.70;62.00
14101;DHT22;7127;49.372;8.166;2023-11-19T11:27:21;18.80;59.70
14101;DHT22;7127;49.372;8.166;2023-11-19T11:30:00;18.80;58.90
14101;DHT22;7127;49.372;8.166;2023-11-19T11:32:34;18.80;59.80
14101;DHT22;7127;49.372;8.166;2023-11-19T11:35:27;18.80;59.80
14101;DHT22;7127;49.372;8.166;2023-11-19T11:38:00;18.80;59.40
14101;DHT22;7127;49.372;8.166;2023-11-19T11:40:28;18.80;59.60
14101;DHT22;7127;49.372;8.166;2023-11-19T11:42:55;18.80;59.40
14101;DHT22;7127;49.372;8.166;2023-11-19T11:45:35;18.80;58.80
14101;DHT22;7127;49.372;8.166;2023-11-19T11:48:10;18.80;59.20
14101;DHT22;7127;49.372;8.166;2023-11-19T11:50:49;18.70;58.80
14101;DHT22;7127;49.372;8.166;2023-11-19T11:53:18;18.70;58.60
14101;DHT22;7127;49.372;8.166;2023-11-19T11:55:55;18.70;58.80
14101;DHT22;7127;49.372;8.166;2023-11-19T11:58:32;18.70;58.00
14101;DHT22;7127;49.372;8.166;2023-11-19T12:01:00;18.80;58.30
14101;DHT22;7127;49.372;8.166;2023-11-19T12:03:28;18.70;58.50
14101;DHT22;7127;49.372;8.166;2023-11-19T12:05:58;18.80;58.40
14101;DHT22;7127;49.372;8.166;2023-11-19T12:08:27;18.80;58.40
14101;DHT22;7127;49.372;8.166;2023-11-19T12:10:55;18.80;58.40
14101;DHT22;7127;49.372;8.166;2023-11-19T12:13:23;18.80;58.40
14101;DHT22;7127;49.372;8.166;2023-11-19T12:16:09;18.80;58.20
14101;DHT22;7127;49.372;8.166;2023-11-19T12:18:39;18.90;57.80
14101;DHT22;7127;49.372;8.166;2023-11-19T12:21:08;18.90;58.10
14101;DHT22;7127;49.372;8.166;2023-11-19T12:23:47;19.00;58.00
14101;DHT22;7127;49.372;8.166;2023-11-19T12:26:33;19.00;57.70
14101;DHT22;7127;49.372;8.166;2023-11-19T12:29:01;19.10;57.30
14101;DHT22;7127;49.372;8.166;2023-11-19T12:31:29;19.00;57.80
14101;DHT22;7127;49.372;8.166;2023-11-19T12:33:57;19.10;57.30
14101;DHT22;7127;49.372;8.166;2023-11-19T12:36:25;19.00;57.20
14101;DHT22;7127;49.372;8.166;2023-11-19T12:38:52;19.00;57.20
14101;DHT22;7127;49.372;8.166;2023-11-19T12:41:18;19.00;57.20
14101;DHT22;7127;49.372;8.166;2023-11-19T12:43:49;19.00;57.10
14101;DHT22;7127;49.372;8.166;2023-11-19T12:46:19;19.00;56.80
14101;DHT22;7127;49.372;8.166;2023-11-19T12:48:47;19.00;56.30
14101;DHT22;7127;49.372;8.166;2023-11-19T12:51:19;19.00;56.40
14101;DHT22;7127;49.372;8.166;2023-11-19T12:53:56;18.90;56.00
14101;DHT22;7127;49.372;8.166;2023-11-19T12:56:24;19.00;55.30
14101;DHT22;7127;49.372;8.166;2023-11-19T12:58:51;18.90;55.20
14101;DHT22;7127;49.372;8.166;2023-11-19T13:01:19;18.90;55.80
14101;DHT22;7127;49.372;8.166;2023-11-19T13:03:46;18.90;56.10
14101;DHT22;7127;49.372;8.166;2023-11-19T13:06:14;18.90;56.30
14101;DHT22;7127;49.372;8.166;2023-11-19T13:08:43;18.90;56.50
14101;DHT22;7127;49.372;8.166;2023-11-19T13:11:12;18.90;56.70
14101;DHT22;7127;49.372;8.166;2023-11-19T13:13:54;18.90;56.60
14101;DHT22;7127;49.372;8.166;2023-11-19T13:16:21;19.00;56.10
14101;DHT22;7127;49.372;8.166;2023-11-19T13:18:48;19.00;56.60
14101;DHT22;7127;49.372;8.166;2023-11-19T13:21:14;19.10;56.20
14101;DHT22;7127;49.372;8.166;2023-11-19T13:23:41;19.20;56.10
14101;DHT22;7127;49.372;8.166;2023-11-19T13:26:08;19.10;56.70
14101;DHT22;7127;49.372;8.166;2023-11-19T13:28:37;19.10;55.70
14101;DHT22;7127;49.372;8.166;2023-11-19T13:31:05;19.10;55.70
14101;DHT22;7127;49.372;8.166;2023-11-19T13:33:31;19.10;55.40
14101;DHT22;7127;49.372;8.166;2023-11-19T13:35:58;19.00;55.30
14101;DHT22;7127;49.372;8.166;2023-11-19T13:38:27;19.00;55.30
14101;DHT22;7127;49.372;8.166;2023-11-19T13:40:54;18.90;55.20
14101;DHT22;7127;49.372;8.166;2023-11-19T13:43:23;18.90;55.10
14101;DHT22;7127;49.372;8.166;2023-11-19T13:45:51;18.90;55.20
14101;DHT22;7127;49.372;8.166;2023-11-19T13:48:18;18.90;55.50
14101;DHT22;7127;49.372;8.166;2023-11-19T13:50:45;18.80;55.20
14101;DHT22;7127;49.372;8.166;2023-11-19T13:53:12;18.80;55.40
14101;DHT22;7127;49.372;8.166;2023-11-19T13:55:39;18.80;55.40
14101;DHT22;7127;49.372;8.166;2023-11-19T13:58:05;18.80;54.90
14101;DHT22;7127;49.372;8.166;2023-11-19T14:00:35;18.80;54.70
14101;DHT22;7127;49.372;8.166;2023-11-19T14:03:03;18.80;54.80
14101;DHT22;7127;49.372;8.166;2023-11-19T14:05:30;18.80;54.80
14101;DHT22;7127;49.372;8.166;2023-11-19T14:07:57;18.70;54.80
14101;DHT22;7127;49.372;8.166;2023-11-19T14:10:24;18.70;54.90
14101;DHT22;7127;49.372;8.166;2023-11-19T14:12:51;18.70;54.90
14101;DHT22;7127;49.372;8.166;2023-11-19T14:15:18;18.70;54.60
14101;DHT22;7127;49.372;8.166;2023-11-19T14:17:45;18.70;54.80
14101;DHT22;7127;49.372;8.166;2023-11-19T14:20:13;18.60;54.50
14101;DHT22;7127;49.372;8.166;2023-11-19T14:26:12;18.60;53.80
14101;DHT22;7127;49.372;8.166;2023-11-19T14:35:31;18.50;54.30
14101;DHT22;7127;49.372;8.166;2023-11-19T14:38:02;18.40;54.30
14101;DHT22;7127;49.372;8.166;2023-11-19T14:40:30;18.40;54.10
14101;DHT22;7127;49.372;8.166;2023-11-19T14:42:57;18.30;54.20
14101;DHT22;7127;49.372;8.166;2023-11-19T14:45:24;18.30;53.90
14101;DHT22;7127;49.372;8.166;2023-11-19T14:47:51;18.30;54.10
14101;DHT22;7127;49.372;8.166;2023-11-19T14:50:18;18.20;54.30
14101;DHT22;7127;49.372;8.166;2023-11-19T14:52:46;18.30;54.40
14101;DHT22;7127;49.372;8.166;2023-11-19T14:55:13;18.20;54.00
14101;DHT22;7127;49.372;8.166;2023-11-19T14:57:40;18.20;54.90
14101;DHT22;7127;49.372;8.166;2023-11-19T15:00:08;18.10;54.40
14101;DHT22;7127;49.372;8.166;2023-11-19T15:02:39;18.10;54.50
14101;DHT22;7127;49.372;8.166;2023-11-19T15:05:07;18.00;54.50
14101;DHT22;7127;49.372;8.166;2023-11-19T15:07:35;18.00;54.50
14101;DHT22;7127;49.372;8.166;2023-11-19T15:10:04;18.00;54.60
14101;DHT22;7127;49.372;8.166;2023-11-19T15:12:36;18.00;54.50
14101;DHT22;7127;49.372;8.166;2023-11-19T15:15:06;18.00;54.70
14101;DHT22;7127;49.372;8.166;2023-11-19T15:17:33;18.00;54.50
14101;DHT22;7127;49.372;8.166;2023-11-19T15:20:01;18.00;54.40
14101;DHT22;7127;49.372;8.166;2023-11-19T15:22:28;18.00;54.40
14101;DHT22;7127;49.372;8.166;2023-11-19T15:24:55;17.90;53.90
14101;DHT22;7127;49.372;8.166;2023-11-19T15:27:23;18.00;54.10
14101;DHT22;7127;49.372;8.166;2023-11-19T15:29:50;17.90;53.90
14101;DHT22;7127;49.372;8.166;2023-11-19T15:32:18;17.80;53.30
14101;DHT22;7127;49.372;8.166;2023-11-19T15:34:44;17.80;53.50
14101;DHT22;7127;49.372;8.166;2023-11-19T15:37:11;17.40;53.40
14101;DHT22;7127;49.372;8.166;2023-11-19T15:39:39;17.70;53.60
14101;DHT22;7127;49.372;8.166;2023-11-19T15:42:06;17.70;53.80
14101;DHT22;7127;49.372;8.166;2023-11-19T15:44:37;17.60;53.80
14101;DHT22;7127;49.372;8.166;2023-11-19T15:47:04;17.50;53.70
14101;DHT22;7127;49.372;8.166;2023-11-19T15:49:31;17.50;53.90
14101;DHT22;7127;49.372;8.166;2023-11-19T15:51:58;17.40;53.60
14101;DHT22;7127;49.372;8.166;2023-11-19T15:54:25;17.50;53.60
14101;DHT22;7127;49.372;8.166;2023-11-19T15:56:52;17.30;53.70
14101;DHT22;7127;49.372;8.166;2023-11-19T15:59:19;17.30;53.70
14101;DHT22;7127;49.372;8.166;2023-11-19T16:01:47;17.20;53.80
14101;DHT22;7127;49.372;8.166;2023-11-19T16:04:14;17.20;53.90
14101;DHT22;7127;49.372;8.166;2023-11-19T16:06:41;17.20;54.10
14101;DHT22;7127;49.372;8.166;2023-11-19T16:09:10;17.20;54.00
14101;DHT22;7127;49.372;8.166;2023-11-19T16:11:40;17.10;54.10